sensor_id;sensor_type;location;lat;lon;timestamp;P1;durP1;ratioP1;P2;durP2;ratioP2
13114;SDS011;6623;52.120;8.660;2023-02-01T00:01:30;16.07;;;3.77;;
13114;SDS011;6623;52.120;8.660;2023-02-01T00:03:55;12.53;;;2.63;;
13114;SDS011;6623;52.120;8.660;2023-02-01T00:06:21;12.03;;;2.87;;
13114;SDS011;6623;52.120;8.660;2023-02-01T00:08:46;16.13;;;3.60;;
13114;SDS011;6623;52.120;8.660;2023-02-01T00:11:12;22.10;;;4.20;;
13114;SDS011;6623;52.120;8.660;2023-02-01T00:13:39;13.77;;;3.03;;
13114;SDS011;6623;52.120;8.660;2023-02-01T00:16:07;16.13;;;3.10;;
13114;SDS011;6623;52.120;8.660;2023-02-01T00:18:34;12.37;;;2.73;;
13114;SDS011;6623;52.120;8.660;2023-02-01T00:21:00;12.70;;;3.07;;
13114;SDS011;6623;52.120;8.660;2023-02-01T00:23:26;10.83;;;2.80;;
13114;SDS011;6623;52.120;8.660;2023-02-01T00:25:51;15.93;;;3.13;;
13114;SDS011;6623;52.120;8.660;2023-02-01T00:28:17;13.53;;;2.90;;
13114;SDS011;6623;52.120;8.660;2023-02-01T00:30:43;15.20;;;3.17;;
13114;SDS011;6623;52.120;8.660;2023-02-01T00:33:08;15.23;;;2.93;;
13114;SDS011;6623;52.120;8.660;2023-02-01T00:35:34;12.27;;;2.80;;
13114;SDS011;6623;52.120;8.660;2023-02-01T00:38:00;14.50;;;2.80;;
13114;SDS011;6623;52.120;8.660;2023-02-01T00:40:26;11.37;;;3.00;;
13114;SDS011;6623;52.120;8.660;2023-02-01T00:42:52;12.07;;;3.03;;
13114;SDS011;6623;52.120;8.660;2023-02-01T00:45:18;10.87;;;2.73;;
13114;SDS011;6623;52.120;8.660;2023-02-01T00:47:43;13.90;;;2.70;;
13114;SDS011;6623;52.120;8.660;2023-02-01T00:50:09;20.17;;;3.47;;
13114;SDS011;6623;52.120;8.660;2023-02-01T00:52:34;12.10;;;3.10;;
13114;SDS011;6623;52.120;8.660;2023-02-01T00:55:00;12.03;;;2.70;;
13114;SDS011;6623;52.120;8.660;2023-02-01T00:57:26;11.37;;;2.77;;
13114;SDS011;6623;52.120;8.660;2023-02-01T00:59:51;15.00;;;3.20;;
13114;SDS011;6623;52.120;8.660;2023-02-01T01:02:17;17.77;;;3.13;;
13114;SDS011;6623;52.120;8.660;2023-02-01T01:04:42;12.97;;;3.40;;
13114;SDS011;6623;52.120;8.660;2023-02-01T01:07:08;14.13;;;3.10;;
13114;SDS011;6623;52.120;8.660;2023-02-01T01:09:34;12.13;;;3.03;;
13114;SDS011;6623;52.120;8.660;2023-02-01T01:12:00;13.03;;;2.83;;
13114;SDS011;6623;52.120;8.660;2023-02-01T01:14:27;10.27;;;2.20;;
13114;SDS011;6623;52.120;8.660;2023-02-01T01:16:53;18.87;;;3.23;;
13114;SDS011;6623;52.120;8.660;2023-02-01T01:19:19;17.13;;;3.33;;
13114;SDS011;6623;52.120;8.660;2023-02-01T01:21:45;15.57;;;2.97;;
13114;SDS011;6623;52.120;8.660;2023-02-01T01:24:10;14.53;;;3.87;;
13114;SDS011;6623;52.120;8.660;2023-02-01T01:26:36;17.00;;;3.33;;
13114;SDS011;6623;52.120;8.660;2023-02-01T01:29:02;9.63;;;2.77;;
13114;SDS011;6623;52.120;8.660;2023-02-01T01:31:28;12.40;;;3.10;;
13114;SDS011;6623;52.120;8.660;2023-02-01T01:33:55;10.23;;;2.63;;
13114;SDS011;6623;52.120;8.660;2023-02-01T01:36:22;14.27;;;2.90;;
13114;SDS011;6623;52.120;8.660;2023-02-01T01:38:49;12.87;;;2.70;;
13114;SDS011;6623;52.120;8.660;2023-02-01T01:41:17;9.27;;;2.60;;
13114;SDS011;6623;52.120;8.660;2023-02-01T01:43:52;13.23;;;2.87;;
13114;SDS011;6623;52.120;8.660;2023-02-01T01:46:21;15.43;;;3.40;;
13114;SDS011;6623;52.120;8.660;2023-02-01T01:48:50;12.20;;;2.77;;
13114;SDS011;6623;52.120;8.660;2023-02-01T01:51:36;11.13;;;2.60;;
13114;SDS011;6623;52.120;8.660;2023-02-01T01:54:11;14.60;;;3.00;;
13114;SDS011;6623;52.120;8.660;2023-02-01T01:56:42;13.07;;;2.97;;
13114;SDS011;6623;52.120;8.660;2023-02-01T01:59:11;16.47;;;3.27;;
13114;SDS011;6623;52.120;8.660;2023-02-01T02:01:37;10.47;;;2.60;;
13114;SDS011;6623;52.120;8.660;2023-02-01T02:04:03;13.93;;;2.90;;
13114;SDS011;6623;52.120;8.660;2023-02-01T02:06:43;15.77;;;2.80;;
13114;SDS011;6623;52.120;8.660;2023-02-01T02:09:14;10.30;;;2.70;;
13114;SDS011;6623;52.120;8.660;2023-02-01T02:11:41;11.80;;;2.43;;
13114;SDS011;6623;52.120;8.660;2023-02-01T02:14:07;11.80;;;2.83;;
13114;SDS011;6623;52.120;8.660;2023-02-01T02:22:32;14.37;;;3.37;;
13114;SDS011;6623;52.120;8.660;2023-02-01T02:28:19;11.60;;;3.00;;
13114;SDS011;6623;52.120;8.660;2023-02-01T02:33:52;12.23;;;3.20;;
13114;SDS011;6623;52.120;8.660;2023-02-01T02:45:23;19.13;;;4.07;;
13114;SDS011;6623;52.120;8.660;2023-02-01T02:48:30;9.53;;;3.00;;
13114;SDS011;6623;52.120;8.660;2023-02-01T02:53:59;10.83;;;3.00;;
13114;SDS011;6623;52.120;8.660;2023-02-01T02:56:43;9.60;;;2.73;;
13114;SDS011;6623;52.120;8.660;2023-02-01T02:59:28;20.33;;;3.77;;
13114;SDS011;6623;52.120;8.660;2023-02-01T03:02:14;16.23;;;2.73;;
13114;SDS011;6623;52.120;8.660;2023-02-01T03:04:59;16.40;;;3.50;;
13114;SDS011;6623;52.120;8.660;2023-02-01T03:10:10;12.60;;;3.20;;
13114;SDS011;6623;52.120;8.660;2023-02-01T03:12:47;13.77;;;3.57;;
13114;SDS011;6623;52.120;8.660;2023-02-01T03:18:16;12.60;;;2.83;;
13114;SDS011;6623;52.120;8.660;2023-02-01T03:20:53;16.13;;;3.20;;
13114;SDS011;6623;52.120;8.660;2023-02-01T03:23:21;14.40;;;2.93;;
13114;SDS011;6623;52.120;8.660;2023-02-01T03:25:55;8.93;;;3.00;;
13114;SDS011;6623;52.120;8.660;2023-02-01T03:28:23;10.40;;;2.60;;
13114;SDS011;6623;52.120;8.660;2023-02-01T03:30:54;11.57;;;3.00;;
13114;SDS011;6623;52.120;8.660;2023-02-01T03:33:21;13.27;;;2.83;;
13114;SDS011;6623;52.120;8.660;2023-02-01T03:36:08;12.60;;;2.70;;
13114;SDS011;6623;52.120;8.660;2023-02-01T03:38:48;11.47;;;2.83;;
13114;SDS011;6623;52.120;8.660;2023-02-01T03:41:25;12.40;;;2.90;;
13114;SDS011;6623;52.120;8.660;2023-02-01T03:44:23;11.97;;;2.67;;
13114;SDS011;6623;52.120;8.660;2023-02-01T03:47:03;11.67;;;2.37;;
13114;SDS011;6623;52.120;8.660;2023-02-01T03:49:37;9.77;;;2.40;;
13114;SDS011;6623;52.120;8.660;2023-02-01T03:52:28;22.13;;;3.50;;
13114;SDS011;6623;52.120;8.660;2023-02-01T03:55:02;10.47;;;2.10;;
13114;SDS011;6623;52.120;8.660;2023-02-01T03:57:31;15.30;;;2.97;;
13114;SDS011;6623;52.120;8.660;2023-02-01T04:00:05;10.47;;;3.23;;
13114;SDS011;6623;52.120;8.660;2023-02-01T04:02:32;15.27;;;3.50;;
13114;SDS011;6623;52.120;8.660;2023-02-01T04:04:58;16.07;;;3.20;;
13114;SDS011;6623;52.120;8.660;2023-02-01T04:07:24;14.77;;;2.97;;
13114;SDS011;6623;52.120;8.660;2023-02-01T04:09:49;10.37;;;2.63;;
13114;SDS011;6623;52.120;8.660;2023-02-01T04:12:15;14.47;;;3.23;;
13114;SDS011;6623;52.120;8.660;2023-02-01T04:14:40;10.70;;;2.90;;
13114;SDS011;6623;52.120;8.660;2023-02-01T04:17:06;10.20;;;2.67;;
13114;SDS011;6623;52.120;8.660;2023-02-01T04:19:37;11.17;;;2.67;;
13114;SDS011;6623;52.120;8.660;2023-02-01T04:22:03;19.43;;;2.97;;
13114;SDS011;6623;52.120;8.660;2023-02-01T04:24:28;11.03;;;3.30;;
13114;SDS011;6623;52.120;8.660;2023-02-01T04:26:54;14.47;;;2.87;;
13114;SDS011;6623;52.120;8.660;2023-02-01T04:29:19;13.07;;;2.97;;
13114;SDS011;6623;52.120;8.660;2023-02-01T04:31:45;11.53;;;2.53;;
13114;SDS011;6623;52.120;8.660;2023-02-01T04:34:11;16.57;;;2.80;;
13114;SDS011;6623;52.120;8.660;2023-02-01T04:36:37;11.30;;;2.73;;
13114;SDS011;6623;52.120;8.660;2023-02-01T04:39:02;13.33;;;2.70;;
13114;SDS011;6623;52.120;8.660;2023-02-01T04:41:28;13.27;;;3.10;;
13114;SDS011;6623;52.120;8.660;2023-02-01T04:43:55;12.43;;;2.73;;
13114;SDS011;6623;52.120;8.660;2023-02-01T04:46:20;15.93;;;3.33;;
13114;SDS011;6623;52.120;8.660;2023-02-01T04:48:46;12.80;;;2.73;;
13114;SDS011;6623;52.120;8.660;2023-02-01T04:51:12;11.93;;;3.07;;
13114;SDS011;6623;52.120;8.660;2023-02-01T04:53:38;13.13;;;3.00;;
13114;SDS011;6623;52.120;8.660;2023-02-01T04:56:03;12.13;;;2.80;;
13114;SDS011;6623;52.120;8.660;2023-02-01T04:58:29;12.00;;;2.73;;
13114;SDS011;6623;52.120;8.660;2023-02-01T05:00:55;10.90;;;2.70;;
13114;SDS011;6623;52.120;8.660;2023-02-01T05:03:20;13.00;;;2.67;;
13114;SDS011;6623;52.120;8.660;2023-02-01T05:05:49;12.37;;;2.47;;
13114;SDS011;6623;52.120;8.660;2023-02-01T05:08:15;12.17;;;3.00;;
13114;SDS011;6623;52.120;8.660;2023-02-01T05:10:40;12.13;;;2.80;;
13114;SDS011;6623;52.120;8.660;2023-02-01T05:13:07;10.13;;;2.80;;
13114;SDS011;6623;52.120;8.660;2023-02-01T05:15:51;10.83;;;2.87;;
13114;SDS011;6623;52.120;8.660;2023-02-01T05:18:17;15.47;;;3.13;;
13114;SDS011;6623;52.120;8.660;2023-02-01T05:20:42;10.50;;;2.90;;
13114;SDS011;6623;52.120;8.660;2023-02-01T05:23:08;12.57;;;2.90;;
13114;SDS011;6623;52.120;8.660;2023-02-01T05:25:33;12.13;;;2.30;;
13114;SDS011;6623;52.120;8.660;2023-02-01T05:27:59;11.67;;;2.90;;
13114;SDS011;6623;52.120;8.660;2023-02-01T05:30:24;13.40;;;2.90;;
13114;SDS011;6623;52.120;8.660;2023-02-01T05:32:51;14.53;;;3.40;;
13114;SDS011;6623;52.120;8.660;2023-02-01T05:35:17;11.97;;;2.70;;
13114;SDS011;6623;52.120;8.660;2023-02-01T05:37:42;8.40;;;2.40;;
13114;SDS011;6623;52.120;8.660;2023-02-01T05:40:08;10.20;;;2.23;;
13114;SDS011;6623;52.120;8.660;2023-02-01T05:42:34;11.13;;;2.77;;
13114;SDS011;6623;52.120;8.660;2023-02-01T05:44:59;12.37;;;2.77;;
13114;SDS011;6623;52.120;8.660;2023-02-01T05:47:25;11.93;;;2.43;;
13114;SDS011;6623;52.120;8.660;2023-02-01T05:49:51;12.53;;;3.17;;
13114;SDS011;6623;52.120;8.660;2023-02-01T05:52:16;12.20;;;2.97;;
13114;SDS011;6623;52.120;8.660;2023-02-01T05:54:44;14.17;;;2.97;;
13114;SDS011;6623;52.120;8.660;2023-02-01T05:57:11;12.60;;;2.80;;
13114;SDS011;6623;52.120;8.660;2023-02-01T05:59:37;14.03;;;2.77;;
13114;SDS011;6623;52.120;8.660;2023-02-01T06:02:06;13.97;;;2.73;;
13114;SDS011;6623;52.120;8.660;2023-02-01T06:04:32;10.67;;;3.10;;
13114;SDS011;6623;52.120;8.660;2023-02-01T06:06:58;14.97;;;3.23;;
13114;SDS011;6623;52.120;8.660;2023-02-01T06:09:23;13.77;;;2.90;;
13114;SDS011;6623;52.120;8.660;2023-02-01T06:11:49;12.83;;;2.87;;
13114;SDS011;6623;52.120;8.660;2023-02-01T06:14:14;8.77;;;2.33;;
13114;SDS011;6623;52.120;8.660;2023-02-01T06:16:40;10.53;;;2.07;;
13114;SDS011;6623;52.120;8.660;2023-02-01T06:19:05;12.70;;;2.73;;
13114;SDS011;6623;52.120;8.660;2023-02-01T06:21:31;14.10;;;3.40;;
13114;SDS011;6623;52.120;8.660;2023-02-01T06:23:56;10.33;;;3.37;;
13114;SDS011;6623;52.120;8.660;2023-02-01T06:26:23;14.73;;;2.63;;
13114;SDS011;6623;52.120;8.660;2023-02-01T06:28:52;17.20;;;3.23;;
13114;SDS011;6623;52.120;8.660;2023-02-01T06:31:17;14.73;;;3.20;;
13114;SDS011;6623;52.120;8.660;2023-02-01T06:33:43;15.23;;;3.07;;
13114;SDS011;6623;52.120;8.660;2023-02-01T06:36:09;13.23;;;2.57;;
13114;SDS011;6623;52.120;8.660;2023-02-01T06:38:37;14.57;;;3.13;;
13114;SDS011;6623;52.120;8.660;2023-02-01T06:41:03;12.13;;;2.77;;
13114;SDS011;6623;52.120;8.660;2023-02-01T06:43:30;8.93;;;2.30;;
13114;SDS011;6623;52.120;8.660;2023-02-01T06:46:01;13.93;;;2.80;;
13114;SDS011;6623;52.120;8.660;2023-02-01T06:48:28;13.63;;;2.47;;
13114;SDS011;6623;52.120;8.660;2023-02-01T06:50:54;6.63;;;2.30;;
13114;SDS011;6623;52.120;8.660;2023-02-01T06:53:20;10.47;;;2.73;;
13114;SDS011;6623;52.120;8.660;2023-02-01T06:55:52;12.63;;;3.10;;
13114;SDS011;6623;52.120;8.660;2023-02-01T06:58:18;14.13;;;3.23;;
13114;SDS011;6623;52.120;8.660;2023-02-01T07:00:43;13.03;;;2.93;;
13114;SDS011;6623;52.120;8.660;2023-02-01T07:03:09;14.17;;;2.97;;
13114;SDS011;6623;52.120;8.660;2023-02-01T07:05:34;11.47;;;2.47;;
13114;SDS011;6623;52.120;8.660;2023-02-01T07:08:00;19.93;;;3.30;;
13114;SDS011;6623;52.120;8.660;2023-02-01T07:10:25;10.90;;;2.40;;
13114;SDS011;6623;52.120;8.660;2023-02-01T07:12:51;9.27;;;2.47;;
13114;SDS011;6623;52.120;8.660;2023-02-01T07:15:16;10.73;;;2.50;;
13114;SDS011;6623;52.120;8.660;2023-02-01T07:17:42;11.57;;;3.00;;
13114;SDS011;6623;52.120;8.660;2023-02-01T07:20:09;11.80;;;2.70;;
13114;SDS011;6623;52.120;8.660;2023-02-01T07:22:35;14.70;;;2.83;;
13114;SDS011;6623;52.120;8.660;2023-02-01T07:25:00;8.90;;;2.43;;
13114;SDS011;6623;52.120;8.660;2023-02-01T07:27:26;8.87;;;2.20;;
13114;SDS011;6623;52.120;8.660;2023-02-01T07:29:51;11.40;;;2.73;;
13114;SDS011;6623;52.120;8.660;2023-02-01T07:32:17;13.37;;;2.70;;
13114;SDS011;6623;52.120;8.660;2023-02-01T07:34:43;10.47;;;2.73;;
13114;SDS011;6623;52.120;8.660;2023-02-01T07:37:09;13.60;;;2.80;;
13114;SDS011;6623;52.120;8.660;2023-02-01T07:39:35;15.90;;;3.37;;
13114;SDS011;6623;52.120;8.660;2023-02-01T07:42:00;13.40;;;3.53;;
13114;SDS011;6623;52.120;8.660;2023-02-01T07:44:26;12.90;;;3.53;;
13114;SDS011;6623;52.120;8.660;2023-02-01T07:46:52;13.83;;;2.80;;
13114;SDS011;6623;52.120;8.660;2023-02-01T07:49:17;12.73;;;3.17;;
13114;SDS011;6623;52.120;8.660;2023-02-01T07:51:43;10.83;;;2.77;;
13114;SDS011;6623;52.120;8.660;2023-02-01T07:54:09;13.33;;;3.33;;
13114;SDS011;6623;52.120;8.660;2023-02-01T07:56:34;15.40;;;3.30;;
13114;SDS011;6623;52.120;8.660;2023-02-01T07:59:00;11.90;;;3.83;;
13114;SDS011;6623;52.120;8.660;2023-02-01T08:01:27;10.07;;;3.00;;
13114;SDS011;6623;52.120;8.660;2023-02-01T08:03:54;11.60;;;2.77;;
13114;SDS011;6623;52.120;8.660;2023-02-01T08:06:21;10.33;;;2.67;;
13114;SDS011;6623;52.120;8.660;2023-02-01T08:08:48;11.57;;;2.60;;
13114;SDS011;6623;52.120;8.660;2023-02-01T08:11:14;12.07;;;3.17;;
13114;SDS011;6623;52.120;8.660;2023-02-01T08:13:43;14.00;;;2.70;;
13114;SDS011;6623;52.120;8.660;2023-02-01T08:16:10;8.17;;;1.63;;
13114;SDS011;6623;52.120;8.660;2023-02-01T08:18:37;11.10;;;2.87;;
13114;SDS011;6623;52.120;8.660;2023-02-01T08:21:04;14.43;;;2.80;;
13114;SDS011;6623;52.120;8.660;2023-02-01T08:23:41;14.90;;;2.67;;
13114;SDS011;6623;52.120;8.660;2023-02-01T08:28:41;16.23;;;2.70;;
13114;SDS011;6623;52.120;8.660;2023-02-01T08:31:10;11.57;;;2.43;;
13114;SDS011;6623;52.120;8.660;2023-02-01T08:33:37;10.60;;;2.60;;
13114;SDS011;6623;52.120;8.660;2023-02-01T08:36:03;7.37;;;2.27;;
13114;SDS011;6623;52.120;8.660;2023-02-01T08:38:30;10.77;;;2.70;;
13114;SDS011;6623;52.120;8.660;2023-02-01T08:40:55;15.23;;;3.37;;
13114;SDS011;6623;52.120;8.660;2023-02-01T08:43:21;7.57;;;2.37;;
13114;SDS011;6623;52.120;8.660;2023-02-01T08:45:53;10.17;;;2.57;;
13114;SDS011;6623;52.120;8.660;2023-02-01T08:48:19;13.63;;;3.23;;
13114;SDS011;6623;52.120;8.660;2023-02-01T08:50:45;14.60;;;2.77;;
13114;SDS011;6623;52.120;8.660;2023-02-01T08:53:10;11.27;;;2.53;;
13114;SDS011;6623;52.120;8.660;2023-02-01T08:55:39;12.23;;;2.83;;
13114;SDS011;6623;52.120;8.660;2023-02-01T08:58:04;11.73;;;2.90;;
13114;SDS011;6623;52.120;8.660;2023-02-01T09:00:30;10.27;;;2.90;;
13114;SDS011;6623;52.120;8.660;2023-02-01T09:02:55;14.90;;;2.97;;
13114;SDS011;6623;52.120;8.660;2023-02-01T09:05:21;10.70;;;2.80;;
13114;SDS011;6623;52.120;8.660;2023-02-01T09:07:48;12.80;;;2.63;;
13114;SDS011;6623;52.120;8.660;2023-02-01T09:10:13;14.10;;;2.73;;
13114;SDS011;6623;52.120;8.660;2023-02-01T09:12:39;9.00;;;2.97;;
13114;SDS011;6623;52.120;8.660;2023-02-01T09:15:04;12.80;;;2.80;;
13114;SDS011;6623;52.120;8.660;2023-02-01T09:17:32;10.20;;;3.13;;
13114;SDS011;6623;52.120;8.660;2023-02-01T09:19:58;12.27;;;2.77;;
13114;SDS011;6623;52.120;8.660;2023-02-01T09:22:23;15.40;;;3.10;;
13114;SDS011;6623;52.120;8.660;2023-02-01T09:24:49;10.53;;;2.80;;
13114;SDS011;6623;52.120;8.660;2023-02-01T09:27:14;14.20;;;3.27;;
13114;SDS011;6623;52.120;8.660;2023-02-01T09:29:40;9.00;;;2.50;;
13114;SDS011;6623;52.120;8.660;2023-02-01T09:32:05;9.80;;;2.50;;
13114;SDS011;6623;52.120;8.660;2023-02-01T09:34:31;7.53;;;2.23;;
13114;SDS011;6623;52.120;8.660;2023-02-01T09:36:58;10.57;;;2.53;;
13114;SDS011;6623;52.120;8.660;2023-02-01T09:39:23;12.87;;;2.47;;
13114;SDS011;6623;52.120;8.660;2023-02-01T09:42:12;10.60;;;2.73;;
13114;SDS011;6623;52.120;8.660;2023-02-01T09:45:17;12.40;;;2.90;;
13114;SDS011;6623;52.120;8.660;2023-02-01T09:48:09;15.73;;;2.83;;
13114;SDS011;6623;52.120;8.660;2023-02-01T09:50:40;9.93;;;2.13;;
13114;SDS011;6623;52.120;8.660;2023-02-01T09:53:12;9.03;;;2.50;;
13114;SDS011;6623;52.120;8.660;2023-02-01T09:55:47;9.83;;;2.93;;
13114;SDS011;6623;52.120;8.660;2023-02-01T09:58:20;8.57;;;2.63;;
13114;SDS011;6623;52.120;8.660;2023-02-01T10:00:56;9.53;;;2.23;;
13114;SDS011;6623;52.120;8.660;2023-02-01T10:03:26;10.93;;;2.20;;
13114;SDS011;6623;52.120;8.660;2023-02-01T10:06:04;12.70;;;2.63;;
13114;SDS011;6623;52.120;8.660;2023-02-01T10:22:09;9.90;;;2.50;;
13114;SDS011;6623;52.120;8.660;2023-02-01T10:24:40;13.63;;;2.60;;
13114;SDS011;6623;52.120;8.660;2023-02-01T10:27:33;11.57;;;2.80;;
13114;SDS011;6623;52.120;8.660;2023-02-01T10:30:03;12.80;;;2.87;;
13114;SDS011;6623;52.120;8.660;2023-02-01T10:32:39;10.57;;;3.03;;
13114;SDS011;6623;52.120;8.660;2023-02-01T10:35:11;10.30;;;2.50;;
13114;SDS011;6623;52.120;8.660;2023-02-01T10:37:43;9.50;;;2.60;;
13114;SDS011;6623;52.120;8.660;2023-02-01T10:42:46;12.03;;;2.80;;
13114;SDS011;6623;52.120;8.660;2023-02-01T10:45:18;12.87;;;2.60;;
13114;SDS011;6623;52.120;8.660;2023-02-01T10:47:46;8.87;;;2.27;;
13114;SDS011;6623;52.120;8.660;2023-02-01T10:50:25;13.97;;;2.50;;
13114;SDS011;6623;52.120;8.660;2023-02-01T10:53:18;5.73;;;2.10;;
13114;SDS011;6623;52.120;8.660;2023-02-01T10:55:50;12.47;;;2.73;;
13114;SDS011;6623;52.120;8.660;2023-02-01T11:00:56;11.20;;;2.30;;
13114;SDS011;6623;52.120;8.660;2023-02-01T11:03:30;9.23;;;2.63;;
13114;SDS011;6623;52.120;8.660;2023-02-01T11:06:09;14.10;;;3.33;;
13114;SDS011;6623;52.120;8.660;2023-02-01T11:08:45;13.13;;;2.70;;
13114;SDS011;6623;52.120;8.660;2023-02-01T11:11:12;12.37;;;3.20;;
13114;SDS011;6623;52.120;8.660;2023-02-01T11:13:39;12.27;;;2.47;;
13114;SDS011;6623;52.120;8.660;2023-02-01T11:16:05;11.33;;;2.47;;
13114;SDS011;6623;52.120;8.660;2023-02-01T11:18:36;10.10;;;2.57;;
13114;SDS011;6623;52.120;8.660;2023-02-01T11:21:03;7.83;;;2.17;;
13114;SDS011;6623;52.120;8.660;2023-02-01T11:23:30;10.03;;;2.40;;
13114;SDS011;6623;52.120;8.660;2023-02-01T11:26:07;10.20;;;2.77;;
13114;SDS011;6623;52.120;8.660;2023-02-01T11:28:40;13.10;;;2.80;;
13114;SDS011;6623;52.120;8.660;2023-02-01T11:31:11;7.20;;;2.60;;
13114;SDS011;6623;52.120;8.660;2023-02-01T11:33:39;9.47;;;2.27;;
13114;SDS011;6623;52.120;8.660;2023-02-01T11:36:13;9.47;;;2.40;;
13114;SDS011;6623;52.120;8.660;2023-02-01T11:38:45;9.63;;;2.60;;
13114;SDS011;6623;52.120;8.660;2023-02-01T11:41:21;9.33;;;2.47;;
13114;SDS011;6623;52.120;8.660;2023-02-01T11:43:56;10.37;;;2.87;;
13114;SDS011;6623;52.120;8.660;2023-02-01T11:46:33;12.07;;;2.57;;
13114;SDS011;6623;52.120;8.660;2023-02-01T11:51:57;6.97;;;2.43;;
13114;SDS011;6623;52.120;8.660;2023-02-01T11:54:31;11.30;;;2.93;;
13114;SDS011;6623;52.120;8.660;2023-02-01T11:57:20;11.50;;;2.43;;
13114;SDS011;6623;52.120;8.660;2023-02-01T12:11:22;8.40;;;2.27;;
13114;SDS011;6623;52.120;8.660;2023-02-01T12:34:19;5.60;;;1.60;;
13114;SDS011;6623;52.120;8.660;2023-02-01T12:42:17;6.80;;;2.00;;
13114;SDS011;6623;52.120;8.660;2023-02-01T12:48:13;5.57;;;2.00;;
13114;SDS011;6623;52.120;8.660;2023-02-01T12:50:53;4.30;;;1.70;;
13114;SDS011;6623;52.120;8.660;2023-02-01T12:56:34;6.23;;;2.03;;
13114;SDS011;6623;52.120;8.660;2023-02-01T12:59:22;5.23;;;1.90;;
13114;SDS011;6623;52.120;8.660;2023-02-01T13:01:54;4.03;;;1.73;;
13114;SDS011;6623;52.120;8.660;2023-02-01T13:04:58;5.07;;;1.87;;
13114;SDS011;6623;52.120;8.660;2023-02-01T13:07:31;7.20;;;2.10;;
13114;SDS011;6623;52.120;8.660;2023-02-01T13:16:13;5.90;;;2.20;;
13114;SDS011;6623;52.120;8.660;2023-02-01T13:19:03;8.73;;;2.33;;
13114;SDS011;6623;52.120;8.660;2023-02-01T13:21:36;11.07;;;2.30;;
13114;SDS011;6623;52.120;8.660;2023-02-01T13:24:09;5.27;;;1.83;;
13114;SDS011;6623;52.120;8.660;2023-02-01T13:26:58;4.37;;;1.83;;
13114;SDS011;6623;52.120;8.660;2023-02-01T13:29:25;7.07;;;2.03;;
13114;SDS011;6623;52.120;8.660;2023-02-01T13:34:28;9.20;;;2.57;;
13114;SDS011;6623;52.120;8.660;2023-02-01T13:37:23;9.80;;;2.40;;
13114;SDS011;6623;52.120;8.660;2023-02-01T13:40:16;8.77;;;2.57;;
13114;SDS011;6623;52.120;8.660;2023-02-01T13:43:05;6.57;;;2.47;;
13114;SDS011;6623;52.120;8.660;2023-02-01T13:45:36;9.00;;;2.40;;
13114;SDS011;6623;52.120;8.660;2023-02-01T13:48:17;8.10;;;2.13;;
13114;SDS011;6623;52.120;8.660;2023-02-01T13:50:49;6.50;;;1.83;;
13114;SDS011;6623;52.120;8.660;2023-02-01T13:53:17;11.00;;;2.93;;
13114;SDS011;6623;52.120;8.660;2023-02-01T13:55:57;7.53;;;2.03;;
13114;SDS011;6623;52.120;8.660;2023-02-01T13:58:29;10.53;;;2.37;;
13114;SDS011;6623;52.120;8.660;2023-02-01T14:03:46;8.53;;;2.07;;
13114;SDS011;6623;52.120;8.660;2023-02-01T14:06:17;8.23;;;2.23;;
13114;SDS011;6623;52.120;8.660;2023-02-01T14:11:34;9.93;;;2.33;;
13114;SDS011;6623;52.120;8.660;2023-02-01T14:16:42;8.67;;;2.33;;
13114;SDS011;6623;52.120;8.660;2023-02-01T14:19:28;9.00;;;2.40;;
13114;SDS011;6623;52.120;8.660;2023-02-01T14:21:58;7.57;;;2.10;;
13114;SDS011;6623;52.120;8.660;2023-02-01T14:24:39;4.33;;;1.70;;
13114;SDS011;6623;52.120;8.660;2023-02-01T14:29:38;7.50;;;2.10;;
13114;SDS011;6623;52.120;8.660;2023-02-01T14:42:26;10.10;;;1.60;;
13114;SDS011;6623;52.120;8.660;2023-02-01T15:06:24;3.70;;;1.10;;
13114;SDS011;6623;52.120;8.660;2023-02-01T15:09:04;5.53;;;1.67;;
13114;SDS011;6623;52.120;8.660;2023-02-01T15:14:18;7.27;;;1.50;;
13114;SDS011;6623;52.120;8.660;2023-02-01T15:16:44;6.40;;;1.80;;
13114;SDS011;6623;52.120;8.660;2023-02-01T15:19:14;6.83;;;1.87;;
13114;SDS011;6623;52.120;8.660;2023-02-01T15:21:44;6.53;;;1.80;;
13114;SDS011;6623;52.120;8.660;2023-02-01T15:24:20;6.00;;;1.70;;
13114;SDS011;6623;52.120;8.660;2023-02-01T15:26:47;7.17;;;1.70;;
13114;SDS011;6623;52.120;8.660;2023-02-01T15:29:13;5.23;;;1.80;;
13114;SDS011;6623;52.120;8.660;2023-02-01T15:31:43;8.50;;;2.20;;
13114;SDS011;6623;52.120;8.660;2023-02-01T15:34:10;9.13;;;1.97;;
13114;SDS011;6623;52.120;8.660;2023-02-01T15:36:36;8.43;;;2.00;;
13114;SDS011;6623;52.120;8.660;2023-02-01T15:39:22;7.73;;;2.10;;
13114;SDS011;6623;52.120;8.660;2023-02-01T15:44:40;6.00;;;1.83;;
13114;SDS011;6623;52.120;8.660;2023-02-01T15:47:10;4.77;;;1.70;;
13114;SDS011;6623;52.120;8.660;2023-02-01T15:49:41;9.50;;;2.07;;
13114;SDS011;6623;52.120;8.660;2023-02-01T15:52:21;9.57;;;1.77;;
13114;SDS011;6623;52.120;8.660;2023-02-01T15:55:05;6.43;;;2.00;;
13114;SDS011;6623;52.120;8.660;2023-02-01T15:57:38;8.07;;;1.73;;
13114;SDS011;6623;52.120;8.660;2023-02-01T16:00:07;12.27;;;2.40;;
13114;SDS011;6623;52.120;8.660;2023-02-01T16:05:40;7.87;;;2.03;;
13114;SDS011;6623;52.120;8.660;2023-02-01T16:10:42;8.87;;;1.83;;
13114;SDS011;6623;52.120;8.660;2023-02-01T16:13:10;9.70;;;2.27;;
13114;SDS011;6623;52.120;8.660;2023-02-01T16:15:37;10.17;;;1.97;;
13114;SDS011;6623;52.120;8.660;2023-02-01T16:18:02;11.33;;;2.33;;
13114;SDS011;6623;52.120;8.660;2023-02-01T16:20:29;11.10;;;1.90;;
13114;SDS011;6623;52.120;8.660;2023-02-01T16:22:54;15.60;;;2.77;;
13114;SDS011;6623;52.120;8.660;2023-02-01T16:25:20;9.93;;;2.10;;
13114;SDS011;6623;52.120;8.660;2023-02-01T16:27:46;9.90;;;2.10;;
13114;SDS011;6623;52.120;8.660;2023-02-01T16:30:12;7.63;;;1.90;;
13114;SDS011;6623;52.120;8.660;2023-02-01T16:32:37;12.20;;;2.10;;
13114;SDS011;6623;52.120;8.660;2023-02-01T16:35:25;4.73;;;1.20;;
13114;SDS011;6623;52.120;8.660;2023-02-01T16:37:51;2.87;;;0.90;;
13114;SDS011;6623;52.120;8.660;2023-02-01T16:40:17;3.17;;;1.00;;
13114;SDS011;6623;52.120;8.660;2023-02-01T16:42:44;5.57;;;1.40;;
13114;SDS011;6623;52.120;8.660;2023-02-01T16:45:12;3.10;;;1.30;;
13114;SDS011;6623;52.120;8.660;2023-02-01T16:47:38;6.93;;;1.50;;
13114;SDS011;6623;52.120;8.660;2023-02-01T16:50:14;6.27;;;1.43;;
13114;SDS011;6623;52.120;8.660;2023-02-01T16:52:41;5.87;;;1.60;;
13114;SDS011;6623;52.120;8.660;2023-02-01T16:55:12;7.97;;;1.47;;
13114;SDS011;6623;52.120;8.660;2023-02-01T16:57:39;9.20;;;1.80;;
13114;SDS011;6623;52.120;8.660;2023-02-01T17:00:05;12.10;;;1.90;;
13114;SDS011;6623;52.120;8.660;2023-02-01T17:02:31;7.37;;;2.03;;
13114;SDS011;6623;52.120;8.660;2023-02-01T17:04:57;8.47;;;1.80;;
13114;SDS011;6623;52.120;8.660;2023-02-01T17:07:22;9.13;;;2.30;;
13114;SDS011;6623;52.120;8.660;2023-02-01T17:09:48;12.87;;;2.60;;
13114;SDS011;6623;52.120;8.660;2023-02-01T17:12:24;11.57;;;2.00;;
13114;SDS011;6623;52.120;8.660;2023-02-01T17:14:54;13.50;;;2.60;;
13114;SDS011;6623;52.120;8.660;2023-02-01T17:17:21;10.83;;;2.50;;
13114;SDS011;6623;52.120;8.660;2023-02-01T17:19:48;14.67;;;3.03;;
13114;SDS011;6623;52.120;8.660;2023-02-01T17:22:21;11.10;;;2.60;;
13114;SDS011;6623;52.120;8.660;2023-02-01T17:24:47;12.43;;;2.40;;
13114;SDS011;6623;52.120;8.660;2023-02-01T17:27:14;12.80;;;2.53;;
13114;SDS011;6623;52.120;8.660;2023-02-01T17:29:41;8.87;;;2.00;;
13114;SDS011;6623;52.120;8.660;2023-02-01T17:32:09;15.17;;;2.77;;
13114;SDS011;6623;52.120;8.660;2023-02-01T17:34:45;10.33;;;2.57;;
13114;SDS011;6623;52.120;8.660;2023-02-01T17:37:28;9.43;;;2.37;;
13114;SDS011;6623;52.120;8.660;2023-02-01T17:39:55;11.37;;;2.27;;
13114;SDS011;6623;52.120;8.660;2023-02-01T17:42:25;10.60;;;2.57;;
13114;SDS011;6623;52.120;8.660;2023-02-01T17:44:54;11.33;;;2.50;;
13114;SDS011;6623;52.120;8.660;2023-02-01T17:47:21;10.20;;;2.20;;
13114;SDS011;6623;52.120;8.660;2023-02-01T17:49:47;8.77;;;2.27;;